CheckWX is a tool to help pilots better visualize weather data.  It is not intended as a substitute for an official pre-flight weather briefing.

01:09:59 UTC

LRCL TAF
Cluj-Napoca International Airport
Cluj-Napoca, Romania
TAF LRCL 232300Z 2400/2409 VRB03KT CAVOK

Feb-24@
00:00 UTC

Feb-24 @ 00:00 UTC

Feb-24@
09:00 UTC

Feb-24 @ 09:00 UTC

TAF LRCL 232300Z 2400/2409 VRB03KT CAVOK
Wind
  • Variable at 3 KTS
Conditions
No significant weather
Cloud Levels
  • No significant clouds